Saint-Ours, Canada
Current Conditions -  °F | °C
As of 6:47 PM on Saturday 20 Dec 2014 (Local Time) from CYHU Reporting Station
Light Snow Light Snow  
Wind Chill:   Ceiling: 500
Heat Index:   Visibility: 3mi
Dew Point:   Wind: 3mph
Humidity: 92%   Direction: 70°ENE
Pressure: 30.36"   Gusts: NA
Location:  45.88°N, 73.15°W
Report Text: CYHU 202347Z AUTO 07003KT 3SM -SN BKN005 M14/M15 A3036 RMK SLP285
Loading
Personal Weather Stations






























Interactive Weather Map New forecast layout! Learn more

10-Day Weather Forecast

Advertisements
Track Severe Weather on mobile